Time;durP1;ratioP1;P1;durP2;ratioP2;P2;SDS_P1;SDS_P2;PMS_P1;PMS_P2;Temp;Humidity;BMP_temperature;BMP_pressure;BME280_temperature;BME280_humidity;BME280_pressure;Samples;Min_cycle;Max_cycle;Signal;HPM_P1;HPM_P2
2022/10/06 00:00:48;;;;;;;0.43;0.40;;;16.00;99.90;;;;;;5067705;28;20209;-39
2022/10/06 00:03:15;;;;;;;1.30;0.30;;;15.90;99.90;;;;;;5053203;28;20206;-39
2022/10/06 00:05:42;;;;;;;1.17;0.40;;;15.90;99.90;;;;;;5063748;28;20556;-40
2022/10/06 00:08:10;;;;;;;3.90;0.80;;;15.90;99.90;;;;;;5053115;28;20225;-39
2022/10/06 00:10:36;;;;;;;0.30;0.30;;;15.90;99.90;;;;;;5057225;28;20253;-39
2022/10/06 00:13:04;;;;;;;0.83;0.33;;;15.80;99.90;;;;;;5056020;28;20202;-41
2022/10/06 00:15:32;;;;;;;1.03;0.30;;;15.80;99.90;;;;;;5066524;28;20202;-39
2022/10/06 00:17:59;;;;;;;2.70;0.43;;;15.80;99.90;;;;;;5058899;28;20222;-40
2022/10/06 00:20:28;;;;;;;1.77;0.70;;;15.80;99.90;;;;;;5060787;28;20281;-40
2022/10/06 00:22:56;;;;;;;0.60;0.60;;;15.80;99.90;;;;;;5057197;28;20221;-39
2022/10/06 00:25:24;;;;;;;0.40;0.30;;;15.80;99.90;;;;;;5054098;28;20211;-41
2022/10/06 00:27:52;;;;;;;0.77;0.33;;;15.70;99.90;;;;;;5050479;28;20226;-40
2022/10/06 00:30:22;;;;;;;0.83;0.57;;;15.70;99.90;;;;;;5061421;28;20201;-40
2022/10/06 00:32:53;;;;;;;0.73;0.30;;;15.60;99.90;;;;;;5065299;28;20282;-39
2022/10/06 00:35:20;;;;;;;1.07;0.50;;;15.60;99.90;;;;;;5057665;28;20199;-39
2022/10/06 00:37:47;;;;;;;0.23;0.20;;;15.60;99.90;;;;;;5059861;28;20260;-42
2022/10/06 00:40:14;;;;;;;1.77;0.40;;;15.60;99.90;;;;;;5063628;28;20193;-40
2022/10/06 00:42:53;;;;;;;0.97;0.60;;;15.50;99.90;;;;;;5060173;28;20222;-39
2022/10/06 00:45:26;;;;;;;1.30;0.40;;;15.50;99.90;;;;;;5052566;28;20202;-40
2022/10/06 00:47:54;;;;;;;0.53;0.50;;;15.50;99.90;;;;;;5061737;28;20254;-40
2022/10/06 00:50:21;;;;;;;0.93;0.40;;;15.40;99.90;;;;;;5057069;28;20209;-41
2022/10/06 00:52:48;;;;;;;0.67;0.30;;;15.40;99.90;;;;;;5074647;28;20197;-39
2022/10/06 00:55:15;;;;;;;2.97;0.63;;;15.40;99.90;;;;;;5061561;28;20187;-40
2022/10/06 00:57:41;;;;;;;0.40;0.37;;;15.40;99.90;;;;;;5059379;28;20226;-40
2022/10/06 01:00:09;;;;;;;2.00;0.47;;;15.40;99.90;;;;;;5043666;28;20207;-42
2022/10/06 01:02:41;;;;;;;2.37;0.30;;;15.40;99.90;;;;;;5066975;28;20222;-42
2022/10/06 01:05:11;;;;;;;0.63;0.50;;;15.30;99.90;;;;;;5064976;28;20187;-42
2022/10/06 01:07:38;;;;;;;0.70;0.40;;;15.30;99.90;;;;;;5060088;28;20234;-40
2022/10/06 01:10:06;;;;;;;0.87;0.40;;;15.30;99.90;;;;;;5062603;28;20186;-40
2022/10/06 01:12:34;;;;;;;0.50;0.50;;;15.30;99.90;;;;;;5065259;28;20540;-40
2022/10/06 01:15:01;;;;;;;2.40;0.40;;;15.20;99.90;;;;;;5046943;28;20202;-40
2022/10/06 01:17:32;;;;;;;2.80;0.37;;;15.20;99.90;;;;;;5049534;28;20254;-39
2022/10/06 01:20:07;;;;;;;2.23;0.50;;;15.20;99.90;;;;;;5040849;28;20202;-39
2022/10/06 01:22:39;;;;;;;1.77;0.30;;;15.10;99.90;;;;;;5069880;28;20218;-40
2022/10/06 01:25:08;;;;;;;1.63;0.20;;;15.00;99.90;;;;;;5077460;28;20190;-39
2022/10/06 01:27:38;;;;;;;2.93;0.43;;;15.00;99.90;;;;;;5057369;28;20223;-48
2022/10/06 01:30:08;;;;;;;2.77;0.37;;;14.90;99.90;;;;;;5060954;28;20237;-48
2022/10/06 01:32:37;;;;;;;2.30;0.40;;;14.90;99.90;;;;;;5052483;28;20276;-49
2022/10/06 01:35:07;;;;;;;0.90;0.47;;;14.80;99.90;;;;;;5055575;28;20191;-49
2022/10/06 01:37:35;;;;;;;0.40;0.30;;;14.80;99.90;;;;;;5052601;28;20230;-49
2022/10/06 01:40:04;;;;;;;0.90;0.40;;;14.70;99.90;;;;;;5061618;28;20195;-42
2022/10/06 01:42:32;;;;;;;1.03;0.40;;;14.70;99.90;;;;;;5075621;28;20202;-40
2022/10/06 01:44:59;;;;;;;3.40;0.40;;;14.60;99.90;;;;;;5052332;28;20303;-39
2022/10/06 01:47:26;;;;;;;0.87;0.60;;;14.60;99.90;;;;;;5052077;28;20223;-40
2022/10/06 01:49:53;;;;;;;1.43;0.40;;;14.60;99.90;;;;;;5052363;28;20199;-48
2022/10/06 01:52:21;;;;;;;2.10;0.60;;;14.50;99.90;;;;;;5055629;28;20203;-48
2022/10/06 01:54:49;;;;;;;1.83;0.47;;;14.50;99.90;;;;;;5067382;28;20201;-49
2022/10/06 01:57:16;;;;;;;0.60;0.37;;;14.50;99.90;;;;;;5060652;28;20234;-48
2022/10/06 01:59:43;;;;;;;1.17;0.30;;;14.40;99.90;;;;;;5057665;28;20206;-49
2022/10/06 02:02:10;;;;;;;0.67;0.40;;;14.40;99.90;;;;;;5065925;28;20215;-48
2022/10/06 02:04:37;;;;;;;2.47;0.77;;;14.30;99.90;;;;;;5044662;28;20210;-49
2022/10/06 02:07:05;;;;;;;0.53;0.30;;;14.40;99.90;;;;;;5071078;28;20186;-48
2022/10/06 02:09:40;;;;;;;4.20;0.43;;;14.30;99.90;;;;;;5057301;28;20206;-39
2022/10/06 02:12:09;;;;;;;2.77;0.60;;;14.30;99.90;;;;;;5067766;28;20964;-39
2022/10/06 02:14:39;;;;;;;0.47;0.30;;;14.30;99.90;;;;;;5060456;28;20252;-40
2022/10/06 02:17:06;;;;;;;3.03;0.50;;;14.30;99.90;;;;;;5055595;28;20211;-39
2022/10/06 02:19:34;;;;;;;3.67;0.40;;;14.20;99.90;;;;;;5050592;28;20241;-40
2022/10/06 02:22:01;;;;;;;1.20;0.40;;;14.20;99.90;;;;;;5021852;28;998902;-39
2022/10/06 02:24:29;;;;;;;1.73;0.60;;;14.20;99.90;;;;;;5062287;28;20207;-40
2022/10/06 02:26:56;;;;;;;4.03;0.50;;;14.20;99.90;;;;;;5056974;28;20288;-39
2022/10/06 02:29:24;;;;;;;1.60;0.40;;;14.30;99.90;;;;;;5055570;28;20257;-41
2022/10/06 02:31:53;;;;;;;2.43;0.53;;;14.30;99.90;;;;;;5053332;28;20198;-40
2022/10/06 02:34:20;;;;;;;2.00;0.53;;;14.30;99.90;;;;;;5048788;28;20218;-39
2022/10/06 02:36:47;;;;;;;1.97;0.67;;;14.30;99.90;;;;;;5054227;28;20672;-40
2022/10/06 02:39:14;;;;;;;0.73;0.70;;;14.30;99.90;;;;;;5055733;28;20233;-39
2022/10/06 02:41:40;;;;;;;2.07;0.77;;;14.30;99.90;;;;;;5057758;28;20210;-39
2022/10/06 02:44:08;;;;;;;1.97;0.50;;;14.30;99.90;;;;;;5081442;28;20205;-39
2022/10/06 02:46:38;;;;;;;2.47;0.67;;;14.30;99.90;;;;;;5067161;28;20252;-40
2022/10/06 02:49:05;;;;;;;1.17;0.40;;;14.30;99.90;;;;;;5058832;28;20222;-41
2022/10/06 02:51:34;;;;;;;2.60;0.80;;;14.30;99.90;;;;;;5053368;28;20215;-41
2022/10/06 02:54:02;;;;;;;1.47;0.50;;;14.30;99.90;;;;;;5058169;28;20302;-42
2022/10/06 02:56:29;;;;;;;4.00;0.60;;;14.30;99.90;;;;;;5051317;28;20203;-39
2022/10/06 02:58:56;;;;;;;2.47;0.57;;;14.30;99.90;;;;;;5059538;28;20242;-39
2022/10/06 03:01:30;;;;;;;2.77;0.70;;;14.30;99.90;;;;;;5063817;28;20571;-40
2022/10/06 03:04:01;;;;;;;3.23;0.73;;;14.20;99.90;;;;;;5057313;28;20245;-39
2022/10/06 03:06:30;;;;;;;4.30;1.33;;;14.20;99.90;;;;;;5049217;28;20211;-40
2022/10/06 03:09:22;;;;;;;2.87;0.90;;;14.20;99.90;;;;;;5050670;28;20222;-40
2022/10/06 03:11:51;;;;;;;2.77;0.90;;;14.10;99.90;;;;;;5055794;28;20605;-40
2022/10/06 03:14:26;;;;;;;2.07;0.70;;;14.10;99.90;;;;;;5054844;28;20586;-40
2022/10/06 03:16:53;;;;;;;6.37;1.13;;;14.10;99.90;;;;;;5045929;28;20202;-40
2022/10/06 03:19:25;;;;;;;3.83;0.90;;;14.00;99.90;;;;;;5053721;28;20305;-39
2022/10/06 03:21:53;;;;;;;3.57;0.80;;;14.00;99.90;;;;;;5058865;28;20210;-39
2022/10/06 03:24:23;;;;;;;4.33;0.77;;;14.00;99.90;;;;;;5049236;28;20241;-40
2022/10/06 03:26:54;;;;;;;3.50;1.07;;;13.90;99.90;;;;;;5043647;28;20744;-40
2022/10/06 03:29:21;;;;;;;4.77;1.40;;;13.90;99.90;;;;;;5044923;28;20214;-39
2022/10/06 03:31:53;;;;;;;3.10;1.20;;;13.90;99.90;;;;;;5045038;28;20195;-39
2022/10/06 03:34:20;;;;;;;4.43;1.00;;;13.90;99.90;;;;;;5036779;28;20210;-41
2022/10/06 03:36:49;;;;;;;2.67;0.80;;;13.90;99.90;;;;;;5051157;28;20210;-39
2022/10/06 03:39:20;;;;;;;3.47;1.17;;;13.80;99.90;;;;;;5056347;28;20226;-40
2022/10/06 03:41:47;;;;;;;3.37;1.00;;;13.80;99.90;;;;;;5054122;28;20209;-40
2022/10/06 03:44:14;;;;;;;5.03;1.40;;;13.80;99.90;;;;;;5058046;28;20218;-39
2022/10/06 03:46:42;;;;;;;6.97;1.67;;;13.80;99.90;;;;;;5064093;28;20205;-39
2022/10/06 03:49:10;;;;;;;2.37;0.90;;;13.70;99.90;;;;;;5051470;28;20619;-41
2022/10/06 03:51:38;;;;;;;3.73;2.00;;;13.70;99.90;;;;;;5061109;28;20932;-39
2022/10/06 03:54:11;;;;;;;5.53;0.97;;;13.70;99.90;;;;;;5050916;28;20201;-40
2022/10/06 03:56:42;;;;;;;4.07;1.20;;;13.60;99.90;;;;;;5070160;28;20210;-40
2022/10/06 03:59:15;;;;;;;3.87;1.63;;;13.60;99.90;;;;;;5054777;28;20266;-40
2022/10/06 04:01:45;;;;;;;2.77;0.83;;;13.60;99.90;;;;;;5058436;28;20209;-39
2022/10/06 04:04:17;;;;;;;1.70;0.83;;;13.60;99.90;;;;;;5044351;28;20223;-39
2022/10/06 04:06:48;;;;;;;5.10;1.20;;;13.50;99.90;;;;;;5061977;28;20682;-42
2022/10/06 04:09:19;;;;;;;5.23;0.97;;;13.50;99.90;;;;;;5045569;28;20777;-41
2022/10/06 04:11:47;;;;;;;5.47;1.07;;;13.50;99.90;;;;;;5056602;28;20209;-39
2022/10/06 04:14:15;;;;;;;3.47;0.80;;;13.50;99.90;;;;;;5049142;28;20199;-40
2022/10/06 04:16:44;;;;;;;2.20;0.93;;;13.40;99.90;;;;;;5050409;28;20293;-41
2022/10/06 04:19:13;;;;;;;4.33;1.00;;;13.40;99.90;;;;;;5061082;28;20217;-41
2022/10/06 04:21:46;;;;;;;5.47;1.00;;;13.40;99.90;;;;;;5054404;28;20264;-41
2022/10/06 04:24:19;;;;;;;3.63;1.13;;;13.40;99.90;;;;;;5038811;28;20234;-42
2022/10/06 04:26:48;;;;;;;4.83;1.23;;;13.30;99.90;;;;;;5051865;28;20351;-39
2022/10/06 04:29:17;;;;;;;7.13;1.70;;;13.30;99.90;;;;;;5050475;28;20260;-39
2022/10/06 04:31:46;;;;;;;6.87;1.77;;;13.30;99.90;;;;;;5061941;28;20207;-41
2022/10/06 04:34:21;;;;;;;5.77;1.33;;;13.20;99.90;;;;;;5052143;28;20202;-40
2022/10/06 04:36:48;;;;;;;5.37;1.03;;;13.20;99.90;;;;;;5055131;28;20237;-40
2022/10/06 04:39:19;;;;;;;5.53;1.20;;;13.20;99.90;;;;;;5044523;28;20232;-40
2022/10/06 04:41:47;;;;;;;4.20;1.60;;;13.20;99.90;;;;;;5051451;28;20202;-39
2022/10/06 04:44:27;;;;;;;8.03;1.43;;;13.20;99.90;;;;;;5044545;28;20221;-40
2022/10/06 04:46:56;;;;;;;2.90;1.43;;;13.20;99.90;;;;;;5054426;28;20249;-39
2022/10/06 04:49:23;;;;;;;5.40;1.77;;;13.10;99.90;;;;;;5064255;28;20967;-41
2022/10/06 04:51:52;;;;;;;5.67;1.10;;;13.10;99.90;;;;;;5060474;28;20221;-39
2022/10/06 04:54:20;;;;;;;7.90;1.20;;;13.10;99.90;;;;;;5036291;28;21457;-40
2022/10/06 04:56:53;;;;;;;3.30;0.90;;;13.00;99.90;;;;;;5054040;28;20560;-39
2022/10/06 05:00:21;;;;;;;5.17;1.77;;;13.00;99.90;;;;;;5047093;28;20327;-40
2022/10/06 05:02:10;;;;;;;6.27;1.10;;;13.00;99.90;;;;;;5051566;28;20206;-42
2022/10/06 05:04:38;;;;;;;5.50;2.20;;;12.90;99.90;;;;;;5050508;28;20238;-40
2022/10/06 05:07:06;;;;;;;8.20;1.20;;;12.90;99.90;;;;;;5064041;28;20222;-39
2022/10/06 05:09:34;;;;;;;5.30;1.50;;;13.00;99.90;;;;;;5054571;28;20203;-40
2022/10/06 05:12:02;;;;;;;8.17;1.30;;;12.90;99.90;;;;;;5045961;28;20211;-49
2022/10/06 05:14:31;;;;;;;6.07;1.03;;;12.90;99.90;;;;;;5062692;28;20203;-49
2022/10/06 05:16:59;;;;;;;7.00;1.63;;;12.90;99.90;;;;;;5063950;28;20290;-49
2022/10/06 05:19:26;;;;;;;5.20;1.27;;;12.90;99.90;;;;;;5057678;28;20217;-49
2022/10/06 05:21:52;;;;;;;7.10;1.30;;;12.90;99.90;;;;;;5057945;28;20203;-49
2022/10/06 05:24:23;;;;;;;5.20;1.50;;;12.80;99.90;;;;;;5054808;28;20266;-49
2022/10/06 05:26:52;;;;;;;3.13;1.10;;;12.80;99.90;;;;;;5045353;28;20214;-49
2022/10/06 05:29:19;;;;;;;7.27;1.43;;;12.80;99.90;;;;;;5061049;28;20308;-49
2022/10/06 05:31:46;;;;;;;10.23;1.80;;;12.80;99.90;;;;;;5064534;28;20195;-49
2022/10/06 05:34:14;;;;;;;7.30;1.60;;;12.80;99.90;;;;;;5048074;28;20199;-49
2022/10/06 05:36:41;;;;;;;6.83;1.20;;;12.80;99.90;;;;;;5061470;28;20206;-49
2022/10/06 05:39:10;;;;;;;3.13;1.40;;;12.80;99.90;;;;;;5058260;28;20234;-49
2022/10/06 05:41:42;;;;;;;6.00;1.57;;;12.80;99.90;;;;;;5042145;28;20203;-49
2022/10/06 05:44:12;;;;;;;5.53;1.40;;;12.70;99.90;;;;;;5064100;28;20223;-49
2022/10/06 05:46:40;;;;;;;4.40;1.27;;;12.70;99.90;;;;;;5050033;28;20194;-49
2022/10/06 05:49:09;;;;;;;8.73;1.23;;;12.80;99.90;;;;;;5056627;28;20246;-49
2022/10/06 05:51:38;;;;;;;5.93;1.30;;;12.70;99.90;;;;;;5065997;28;20677;-44
2022/10/06 05:54:10;;;;;;;10.03;2.30;;;12.70;99.90;;;;;;5074619;28;20182;-40
2022/10/06 05:56:38;;;;;;;6.07;1.37;;;12.70;99.90;;;;;;5042005;28;20216;-40
2022/10/06 05:59:06;;;;;;;12.43;2.23;;;12.70;99.90;;;;;;5063273;28;20214;-40
2022/10/06 06:01:36;;;;;;;7.57;1.60;;;12.70;99.90;;;;;;5058571;28;20201;-40
2022/10/06 06:04:09;;;;;;;6.93;1.50;;;12.70;99.90;;;;;;5061001;28;20703;-39
2022/10/06 06:06:43;;;;;;;7.13;1.37;;;12.70;99.90;;;;;;5057965;28;20202;-40
2022/10/06 06:09:15;;;;;;;7.07;1.20;;;12.70;99.90;;;;;;5060533;28;20718;-41
2022/10/06 06:11:46;;;;;;;4.77;1.33;;;12.80;99.90;;;;;;5059799;28;20206;-43
2022/10/06 06:14:15;;;;;;;10.80;1.47;;;12.80;99.90;;;;;;5049878;28;20205;-40
2022/10/06 06:16:43;;;;;;;6.83;1.63;;;12.80;99.90;;;;;;5062810;28;20216;-41
2022/10/06 06:19:12;;;;;;;4.37;1.40;;;12.80;99.90;;;;;;5062613;28;20554;-41
2022/10/06 06:21:40;;;;;;;9.53;1.90;;;12.80;99.90;;;;;;5058833;28;20307;-40
2022/10/06 06:24:08;;;;;;;5.20;1.33;;;12.80;99.90;;;;;;5054957;28;20559;-40
2022/10/06 06:26:37;;;;;;;6.87;1.50;;;12.90;99.90;;;;;;5061264;28;20972;-40
2022/10/06 06:29:05;;;;;;;7.90;1.67;;;12.90;99.90;;;;;;5050652;28;20222;-40
2022/10/06 06:31:40;;;;;;;5.40;1.97;;;12.90;99.90;;;;;;5082166;28;20379;-41
2022/10/06 06:34:10;;;;;;;6.07;1.67;;;12.90;99.90;;;;;;5057485;28;20251;-40
2022/10/06 06:36:40;;;;;;;11.17;1.77;;;12.90;99.90;;;;;;5067549;28;20218;-40
2022/10/06 06:39:12;;;;;;;3.83;1.30;;;12.90;99.90;;;;;;5061091;28;20298;-42
2022/10/06 06:41:43;;;;;;;7.93;1.77;;;13.00;99.90;;;;;;5058781;28;20214;-40
2022/10/06 06:44:29;;;;;;;4.43;1.20;;;13.00;99.90;;;;;;5037037;28;20230;-42
2022/10/06 06:47:03;;;;;;;2.97;1.40;;;13.00;99.90;;;;;;5048558;28;20226;-42
2022/10/06 06:49:32;;;;;;;4.07;1.13;;;13.10;99.90;;;;;;5055246;28;20222;-44
2022/10/06 06:52:04;;;;;;;9.70;1.83;;;13.10;99.90;;;;;;5049791;28;20350;-40
2022/10/06 06:54:33;;;;;;;5.57;1.23;;;13.10;99.90;;;;;;5047742;28;20202;-40
2022/10/06 06:57:07;;;;;;;4.07;1.27;;;13.20;99.90;;;;;;5065047;28;20887;-40
2022/10/06 06:59:34;;;;;;;10.00;1.80;;;13.20;99.90;;;;;;5049387;28;20204;-41
2022/10/06 07:02:02;;;;;;;3.53;1.53;;;13.20;99.90;;;;;;5053669;28;20191;-40
2022/10/06 07:04:36;;;;;;;7.97;2.10;;;13.20;99.90;;;;;;5046189;28;20630;-40
2022/10/06 07:07:05;;;;;;;6.07;1.30;;;13.30;99.90;;;;;;5050337;28;20228;-40
2022/10/06 07:09:35;;;;;;;7.87;1.70;;;13.30;99.90;;;;;;5053911;28;20197;-40
2022/10/06 07:12:10;;;;;;;7.77;1.70;;;13.30;99.90;;;;;;5057904;28;20694;-41
2022/10/06 07:25:05;;;;;;;10.47;1.40;;;13.40;99.90;;;;;;5040728;28;20191;-40
2022/10/06 07:25:43;;;;;;;7.60;1.50;;;13.50;99.90;;;;;;5048094;28;20309;-41
2022/10/06 07:28:11;;;;;;;7.80;1.20;;;13.60;99.90;;;;;;5052026;28;20252;-40
2022/10/06 07:30:39;;;;;;;6.07;1.53;;;13.60;99.90;;;;;;5044089;28;20264;-41
2022/10/06 07:33:13;;;;;;;10.37;2.57;;;13.70;99.90;;;;;;5047452;28;20207;-40
2022/10/06 07:35:42;;;;;;;9.37;1.57;;;13.70;99.90;;;;;;5046677;28;20191;-40
2022/10/06 07:38:10;;;;;;;9.17;1.70;;;13.70;99.90;;;;;;5051967;28;20225;-40
2022/10/06 07:40:41;;;;;;;12.00;1.80;;;13.80;99.90;;;;;;5057972;28;20206;-42
2022/10/06 07:43:09;;;;;;;5.33;1.60;;;13.90;99.90;;;;;;5047144;28;20223;-42
2022/10/06 07:45:43;;;;;;;6.30;1.70;;;13.90;99.90;;;;;;5048384;28;20737;-42
2022/10/06 07:48:17;;;;;;;7.80;1.80;;;13.90;99.90;;;;;;5042160;28;20229;-39
2022/10/06 07:50:50;;;;;;;8.70;1.60;;;13.90;99.90;;;;;;5067911;28;20208;-43
2022/10/06 07:53:26;;;;;;;6.63;1.67;;;14.00;99.90;;;;;;5046698;28;20229;-43
2022/10/06 07:56:04;;;;;;;6.83;1.40;;;14.00;99.90;;;;;;5053919;28;21896;-40
2022/10/06 07:58:36;;;;;;;7.57;2.00;;;14.10;99.90;;;;;;5060270;28;20226;-40
2022/10/06 08:01:05;;;;;;;7.73;1.90;;;14.10;99.90;;;;;;5041923;28;20668;-40
2022/10/06 08:03:32;;;;;;;4.60;1.23;;;14.10;99.90;;;;;;5056105;28;20203;-40
2022/10/06 08:06:01;;;;;;;7.90;1.80;;;14.20;99.90;;;;;;5049116;28;20238;-41
2022/10/06 08:08:31;;;;;;;4.73;1.47;;;14.20;99.90;;;;;;5055496;28;20224;-40
2022/10/06 08:10:59;;;;;;;6.70;1.67;;;14.20;99.90;;;;;;5067973;28;20268;-40
2022/10/06 08:13:26;;;;;;;6.10;1.40;;;14.20;99.90;;;;;;5059881;28;20187;-40
2022/10/06 08:15:55;;;;;;;7.07;1.70;;;14.20;99.90;;;;;;5055384;28;20201;-39
2022/10/06 08:18:23;;;;;;;5.73;0.90;;;14.30;99.90;;;;;;5042364;28;20218;-41
2022/10/06 08:20:50;;;;;;;5.67;1.47;;;14.30;99.90;;;;;;5055829;28;20233;-40
2022/10/06 08:23:18;;;;;;;6.87;1.90;;;14.30;99.90;;;;;;5033305;28;22764;-42
2022/10/06 08:25:49;;;;;;;6.43;1.70;;;14.40;99.90;;;;;;5050605;28;20587;-40
2022/10/06 08:28:16;;;;;;;7.37;1.43;;;14.40;99.90;;;;;;5041136;28;20233;-41
2022/10/06 08:30:43;;;;;;;5.47;2.33;;;14.40;99.90;;;;;;5057175;28;20203;-42
2022/10/06 08:33:10;;;;;;;5.27;1.17;;;14.40;99.90;;;;;;5036700;28;20305;-40
2022/10/06 08:35:38;;;;;;;9.97;1.27;;;14.50;99.90;;;;;;5054059;28;20274;-42
2022/10/06 08:38:05;;;;;;;7.23;1.43;;;14.50;99.90;;;;;;5038434;28;20232;-41
2022/10/06 08:40:34;;;;;;;5.73;1.67;;;14.60;99.90;;;;;;5054187;28;20198;-40
2022/10/06 08:43:02;;;;;;;6.80;2.33;;;14.60;99.90;;;;;;5054505;28;20203;-40
2022/10/06 08:45:34;;;;;;;7.50;1.27;;;14.60;99.90;;;;;;5055791;28;20987;-40
2022/10/06 08:48:05;;;;;;;9.37;2.43;;;14.60;99.90;;;;;;5043613;28;22134;-40
2022/10/06 08:50:37;;;;;;;8.07;1.67;;;14.60;99.90;;;;;;5055651;28;20278;-41
2022/10/06 08:53:12;;;;;;;10.80;1.90;;;14.70;99.90;;;;;;5051788;28;20670;-40
2022/10/06 08:55:46;;;;;;;10.33;1.83;;;14.80;99.90;;;;;;5054967;28;20186;-41
2022/10/06 08:58:32;;;;;;;9.03;1.70;;;14.80;99.90;;;;;;5051074;28;20226;-40
2022/10/06 09:01:15;;;;;;;5.53;1.73;;;14.80;99.90;;;;;;5061347;28;20667;-40
2022/10/06 09:03:46;;;;;;;7.67;1.83;;;14.90;99.90;;;;;;5045599;28;20209;-40
2022/10/06 09:06:22;;;;;;;10.00;1.57;;;15.00;99.90;;;;;;5051495;28;20226;-42
2022/10/06 09:08:53;;;;;;;9.57;1.87;;;15.10;99.90;;;;;;5045953;28;20568;-41
2022/10/06 09:11:38;;;;;;;9.50;1.70;;;15.20;99.90;;;;;;5060436;28;20569;-40
2022/10/06 09:14:12;;;;;;;7.73;1.70;;;15.20;99.90;;;;;;5062989;28;20225;-40
2022/10/06 09:16:44;;;;;;;5.67;1.03;;;15.30;99.90;;;;;;5050313;28;20205;-40
2022/10/06 09:19:17;;;;;;;7.13;1.70;;;15.40;99.90;;;;;;5054510;28;20218;-47
2022/10/06 09:21:47;;;;;;;6.60;1.70;;;15.40;99.90;;;;;;5047834;28;20237;-40
2022/10/06 09:24:17;;;;;;;11.63;1.80;;;15.40;99.90;;;;;;5058206;28;20198;-43
2022/10/06 09:26:49;;;;;;;5.73;1.23;;;15.40;99.90;;;;;;5045138;28;20924;-40
2022/10/06 09:29:17;;;;;;;9.43;1.30;;;15.40;99.90;;;;;;5056973;28;20229;-41
2022/10/06 09:31:49;;;;;;;11.13;2.10;;;15.40;99.90;;;;;;5049375;28;20201;-40
2022/10/06 09:34:23;;;;;;;6.97;1.43;;;15.40;99.90;;;;;;5047637;28;20218;-40
2022/10/06 09:36:59;;;;;;;9.77;1.30;;;15.40;99.90;;;;;;5059100;28;20198;-44
2022/10/06 09:39:32;;;;;;;8.20;2.13;;;15.40;99.90;;;;;;5047666;28;20284;-41
2022/10/06 09:42:03;;;;;;;4.77;1.60;;;15.40;99.90;;;;;;5059904;28;20203;-42
2022/10/06 09:44:35;;;;;;;6.67;1.33;;;15.60;99.90;;;;;;5060010;28;20232;-43
2022/10/06 09:47:35;;;;;;;7.87;1.57;;;15.50;99.90;;;;;;5052022;28;20602;-40
2022/10/06 09:50:21;;;;;;;6.63;1.00;;;15.40;99.90;;;;;;5044694;28;20210;-40
2022/10/06 09:53:04;;;;;;;8.33;1.63;;;15.30;99.90;;;;;;5055353;28;20731;-39
2022/10/06 09:55:34;;;;;;;5.10;1.67;;;15.30;99.90;;;;;;5048617;28;20274;-40
2022/10/06 09:58:03;;;;;;;7.70;1.73;;;15.30;99.90;;;;;;5046831;28;20713;-40
2022/10/06 10:00:31;;;;;;;5.23;1.30;;;15.30;99.90;;;;;;5057240;28;20264;-41
2022/10/06 10:03:01;;;;;;;8.37;1.87;;;15.30;99.90;;;;;;5049288;28;20216;-41
2022/10/06 10:05:30;;;;;;;5.93;1.70;;;15.40;99.90;;;;;;5046770;28;20262;-40
2022/10/06 10:08:08;;;;;;;4.23;1.50;;;15.50;99.90;;;;;;5057725;28;20214;-41
2022/10/06 10:10:36;;;;;;;7.37;1.57;;;15.60;99.90;;;;;;5052185;28;20238;-41
2022/10/06 10:13:18;;;;;;;6.83;1.53;;;15.70;99.90;;;;;;5054535;28;20194;-40
2022/10/06 10:15:53;;;;;;;6.23;1.40;;;15.80;99.90;;;;;;5055832;28;20197;-39
2022/10/06 10:18:25;;;;;;;2.27;0.93;;;15.70;99.90;;;;;;5066686;28;20267;-44
2022/10/06 10:20:56;;;;;;;5.23;1.40;;;15.70;99.90;;;;;;5058411;28;20956;-40
2022/10/06 10:23:28;;;;;;;6.63;1.40;;;15.80;99.90;;;;;;5066232;28;20209;-42
2022/10/06 10:26:06;;;;;;;6.63;1.60;;;16.00;99.90;;;;;;5061353;28;20210;-44
2022/10/06 10:29:02;;;;;;;4.00;1.20;;;16.10;99.90;;;;;;5066495;28;20225;-43
2022/10/06 10:31:38;;;;;;;7.47;1.43;;;16.30;99.90;;;;;;5065308;28;20220;-40
2022/10/06 10:34:13;;;;;;;4.87;1.40;;;16.30;99.90;;;;;;5036989;28;20199;-40
2022/10/06 10:36:47;;;;;;;5.60;1.57;;;16.30;99.90;;;;;;5046755;28;20657;-39
2022/10/06 10:39:24;;;;;;;7.17;1.97;;;16.20;99.90;;;;;;5038090;28;20214;-39
2022/10/06 10:41:54;;;;;;;4.30;1.10;;;16.10;99.90;;;;;;5057527;28;20563;-43
2022/10/06 10:44:29;;;;;;;5.47;1.20;;;16.00;99.90;;;;;;5055568;28;20474;-43
2022/10/06 10:47:06;;;;;;;6.40;1.63;;;15.90;99.90;;;;;;5062850;28;20241;-39
2022/10/06 10:49:34;;;;;;;6.27;1.20;;;15.90;99.90;;;;;;5047328;28;21864;-41
2022/10/06 10:52:08;;;;;;;7.00;1.50;;;15.80;99.90;;;;;;5066901;28;20195;-39
2022/10/06 10:54:40;;;;;;;7.33;1.60;;;15.70;99.90;;;;;;5069788;28;20190;-41
2022/10/06 10:57:13;;;;;;;5.00;1.27;;;15.80;99.90;;;;;;5050423;28;20214;-39
2022/10/06 10:59:53;;;;;;;6.47;1.47;;;15.90;99.90;;;;;;5065508;28;20271;-40
2022/10/06 11:02:22;;;;;;;6.43;1.50;;;16.10;99.90;;;;;;5066240;28;20186;-40
2022/10/06 11:04:53;;;;;;;5.37;1.40;;;16.30;99.90;;;;;;5072332;28;20281;-39
2022/10/06 11:07:25;;;;;;;7.50;1.30;;;16.40;99.90;;;;;;5054067;28;20204;-44
2022/10/06 11:10:00;;;;;;;7.03;1.37;;;16.40;99.90;;;;;;5079138;28;20190;-39
2022/10/06 11:12:45;;;;;;;9.27;1.10;;;16.20;99.90;;;;;;5059725;28;20190;-40
2022/10/06 11:15:24;;;;;;;5.67;1.40;;;16.10;99.90;;;;;;5052229;28;20195;-39
2022/10/06 11:17:53;;;;;;;5.53;1.67;;;16.00;99.90;;;;;;5035489;28;20218;-40
2022/10/06 11:20:36;;;;;;;5.07;1.20;;;15.90;99.90;;;;;;5049459;28;20207;-41
2022/10/06 11:23:21;;;;;;;7.27;1.73;;;15.90;99.90;;;;;;5029312;28;20719;-42
2022/10/06 11:25:56;;;;;;;8.50;1.20;;;15.90;99.90;;;;;;5055173;28;20301;-41
2022/10/06 11:28:30;;;;;;;6.23;1.37;;;15.90;99.90;;;;;;5045972;28;20221;-42
2022/10/06 11:31:06;;;;;;;6.13;1.23;;;15.90;99.90;;;;;;5042299;28;20676;-40
2022/10/06 11:33:39;;;;;;;6.17;1.43;;;15.90;99.90;;;;;;5055264;28;20715;-40
2022/10/06 11:36:12;;;;;;;6.23;1.73;;;15.90;99.90;;;;;;5048364;28;20197;-41
2022/10/06 11:38:42;;;;;;;4.20;1.13;;;15.80;99.90;;;;;;5041254;28;20210;-42
2022/10/06 11:41:18;;;;;;;5.13;1.13;;;15.80;99.90;;;;;;5055509;28;20795;-41
2022/10/06 11:43:50;;;;;;;5.33;1.00;;;15.70;99.90;;;;;;5057931;28;20209;-41
2022/10/06 11:46:28;;;;;;;3.67;1.00;;;15.70;99.90;;;;;;5049795;28;20210;-44
2022/10/06 11:49:29;;;;;;;9.77;1.30;;;15.60;99.90;;;;;;5060696;28;20221;-41
2022/10/06 11:51:57;;;;;;;4.30;1.20;;;15.60;99.90;;;;;;5056797;28;20561;-41
2022/10/06 11:54:46;;;;;;;3.53;0.97;;;15.60;99.90;;;;;;5053014;28;20269;-42
2022/10/06 11:57:32;;;;;;;6.03;1.17;;;15.70;99.90;;;;;;5063416;28;20190;-43
2022/10/06 12:00:35;;;;;;;5.27;1.37;;;15.70;99.90;;;;;;5057140;28;20285;-41
2022/10/06 12:03:35;;;;;;;4.13;1.10;;;15.70;99.90;;;;;;5048244;28;20206;-42
2022/10/06 12:06:06;;;;;;;4.17;1.33;;;15.90;99.90;;;;;;5059770;28;20214;-42
2022/10/06 12:08:38;;;;;;;3.40;1.00;;;15.90;99.90;;;;;;5067469;28;20230;-42
2022/10/06 12:11:38;;;;;;;5.37;2.03;;;16.00;99.90;;;;;;5064079;28;20925;-41
2022/10/06 12:14:11;;;;;;;4.53;1.20;;;15.90;99.90;;;;;;5079331;28;20487;-42
2022/10/06 12:16:44;;;;;;;4.87;1.27;;;15.80;99.90;;;;;;5073265;28;20204;-44
2022/10/06 12:19:21;;;;;;;7.00;1.23;;;15.80;99.90;;;;;;5082512;28;20202;-42
2022/10/06 12:22:00;;;;;;;5.40;1.03;;;15.70;99.90;;;;;;5078468;28;20690;-41
2022/10/06 12:24:35;;;;;;;5.47;1.27;;;15.70;99.90;;;;;;5045853;28;20217;-43
2022/10/06 12:27:21;;;;;;;3.27;1.07;;;15.70;99.90;;;;;;5073526;28;20796;-42
2022/10/06 12:29:54;;;;;;;3.30;1.10;;;15.70;99.90;;;;;;5077681;28;20668;-44
2022/10/06 12:32:35;;;;;;;5.70;1.13;;;15.80;99.90;;;;;;5071496;28;20681;-41
2022/10/06 12:35:16;;;;;;;5.17;1.60;;;15.90;99.90;;;;;;5083246;28;20189;-42
2022/10/06 12:37:47;;;;;;;4.63;1.40;;;15.90;99.90;;;;;;5082434;28;20698;-42
2022/10/06 12:40:41;;;;;;;5.03;1.00;;;15.90;99.90;;;;;;5054906;28;20206;-41
2022/10/06 12:43:27;;;;;;;6.03;1.57;;;15.90;99.90;;;;;;5076027;28;20178;-42
2022/10/06 12:45:58;;;;;;;8.10;1.90;;;15.90;99.90;;;;;;5083423;28;20213;-45
2022/10/06 12:48:39;;;;;;;8.83;1.53;;;15.90;99.90;;;;;;5073492;28;20226;-42
2022/10/06 12:51:17;;;;;;;7.73;1.60;;;15.90;99.90;;;;;;5064781;28;20187;-43
2022/10/06 12:53:55;;;;;;;5.47;1.13;;;16.00;99.90;;;;;;5061494;28;20194;-42
2022/10/06 12:56:28;;;;;;;2.33;1.20;;;16.20;99.90;;;;;;5047592;28;20849;-42
2022/10/06 12:58:55;;;;;;;7.53;1.80;;;16.40;99.90;;;;;;5063124;28;20202;-41
2022/10/06 13:01:23;;;;;;;7.17;1.57;;;16.60;99.90;;;;;;5051128;28;20214;-41
2022/10/06 13:03:52;;;;;;;6.17;1.77;;;16.80;99.90;;;;;;5048975;28;20518;-41
2022/10/06 13:06:22;;;;;;;3.60;1.13;;;17.00;99.90;;;;;;5055619;28;20221;-41
2022/10/06 13:09:05;;;;;;;5.87;1.40;;;17.20;99.90;;;;;;5053505;28;20226;-45
2022/10/06 13:11:32;;;;;;;4.47;1.27;;;17.30;99.90;;;;;;5045705;28;20216;-42
2022/10/06 13:14:09;;;;;;;6.83;1.40;;;17.40;99.90;;;;;;5056649;28;20199;-45
2022/10/06 13:16:39;;;;;;;9.80;1.20;;;17.40;99.90;;;;;;5054937;28;20213;-41